Archival Weather

Chicago O'Hare International

Chicago, Illinois (KORD)

Report from: Thursday, April 13, 2023 12:51 PM CDT
Current time: Sunday, February 25, 2024 4:31 PM CST

Current weather – Weather history – Daily summaries
Weather forecast

Temperature25.6°C (78.1°F)
Dew point5.0°C (41.0°F)
Winds 10 kts (5.1 m/s, 11.5 mph) South-Southwest (210°)
Wind gusts 19 kts (9.8 m/s, 21.9 mph)
Visibility10 mi. (16.1 km)
Clouds Ceiling: Broken clouds 25,000 ft. (7,620 m)
Altimeter29.87 in.Hg (1012 mB)
Relative humidity27 %
Density altitude1,432 ft. (436 m)
Sea-level pressure101.1 kPa (1011 mB, 29.85 in.Hg)
Max temp last 6 hours25.6°C (78.1°F)
Min temp last 6 hours14.4°C (57.9°F)
Remarks Automated weather observing station with precipitation discriminator
Pressure falling more quickly
Flight conditions Visual Meteorological Conditions
Raw dataKORD 131751Z 21010G19KT 10SM BKN250 26/05 A2987 RMK AO2 SLP110 T02560050 10256 20144 58016
An error has occurred. This application may no longer respond until reloaded. Reload 🗙